Overview Statistics Trail Chart Weather Telemetry Raw packets
 

This is the latest recevied weather packets stored in our database for station/object KB4RFE. If no packets are shown the sender has not sent any weather packets the latest 10 day(s).

<< 104 105 106 107 108 109 110 >>
Time Temp. Humidity Pressure Rain* Wind** Luminosity Snow
1787843907 30° C 79% 1019.9 hPa 0 mm - 336 W/m² -
1787843603 29.44° C 77% 1019.9 hPa 0 mm - 453 W/m² -
1787843299 29.44° C 79% 1019.9 hPa 0 mm - 293 W/m² -
1787842994 30° C 76% 1019.9 hPa 0 mm - 694 W/m² -
1787842694 30° C 77% 1019.8 hPa 0 mm - 803 W/m² -
1787842390 30° C 78% 1019.7 hPa 0 mm - 241 W/m² -
1787842089 30° C 78% 1019.8 hPa 0 mm - 664 W/m² -
1787841785 29.44° C 78% 1019.6 hPa 0 mm - 655 W/m² -
1787841480 29.44° C 82% 1019.6 hPa 0 mm - 198 W/m² -
1787841179 28.89° C 81% 1019.5 hPa 0 mm - 616 W/m² -
1787840874 28.89° C 81% 1019.6 hPa 0 mm - 580 W/m² -
1787840569 28.33° C 84% 1019.3 hPa 0 mm - 555 W/m² -
1787840265 28.33° C 84% 1019.2 hPa 0 mm - 542 W/m² -
1787839964 27.78° C 84% 1019.4 hPa 0 mm - 537 W/m² -
1787839659 27.78° C 87% 1019.4 hPa 0 mm - 519 W/m² -
1787839359 27.78° C 88% 1019 hPa 0 mm - 506 W/m² -
1787839054 27.22° C 90% 1019.2 hPa 0 mm - 499 W/m² -
1787838753 26.67° C 94% 1019.3 hPa 0 mm - 507 W/m² -
1787838453 26.67° C 96% 1019.3 hPa 0 mm - 452 W/m² -
1787838152 26.67° C 97% 1019.1 hPa 0 mm - 284 W/m² -
1787837847 26.11° C 97% 1019 hPa 0 mm - 365 W/m² -
1787837541 26.11° C 98% 1019 hPa 0 mm - 377 W/m² -
1787837241 26.11° C 98% 1018.7 hPa 0 mm - 346 W/m² -
1787836940 26.11° C 98% 1018.8 hPa 0 mm - 181 W/m² -
1787836635 25.56° C 98% 1018.8 hPa 0 mm - 171 W/m² -

* Rain latest hour (hover to see other rain measurements)
** Current wind speed in m/s (hover to see current wind gust speed)